Emma, Kentucky
Current Conditions -  °F | °C
As of 3:15 AM on Monday 24 Nov 2014 (Local Time) from KSJS Reporting Station
Overcast Overcast  
Wind Chill: 64°   Ceiling: 3800
Heat Index: 64°   Visibility: 10mi
Dew Point: 53°   Wind: 14mph
Humidity: 66%   Direction: 210°SSW
Pressure: 29.52"   Gusts: 24mph
Location:  37.6405°N, 82.8256°W
Report Text: KSJS 240815Z AUTO 21012G21KT 10SM OVC038 18/12 A2952 RMK AO2 T01800115
Loading
Personal Weather Stations






























Interactive Weather Map New forecast layout! Learn more

10-Day Weather Forecast

Advertisements
Track Severe Weather on mobile